Time;durP1;ratioP1;P1;durP2;ratioP2;P2;SDS_P1;SDS_P2;PMS_P1;PMS_P2;Temp;Humidity;BMP_temperature;BMP_pressure;BME280_temperature;BME280_humidity;BME280_pressure;Samples;Min_cycle;Max_cycle;Signal;HPM_P1;HPM_P2
2021/03/03 00:01:52;;;;;;;20.80;12.98;;;9.80;76.30;;;;;;5021384;28;20029;-86
2021/03/03 00:04:18;;;;;;;20.42;12.20;;;9.80;76.40;;;;;;5020751;28;20037;-85
2021/03/03 00:06:43;;;;;;;22.08;12.30;;;9.70;76.40;;;;;;5037845;28;20107;-85
2021/03/03 00:09:09;;;;;;;24.08;13.68;;;9.70;76.50;;;;;;5037479;28;20127;-84
2021/03/03 00:11:35;;;;;;;23.45;14.18;;;9.70;77.20;;;;;;5029310;28;20041;-84
2021/03/03 00:14:00;;;;;;;21.02;12.40;;;9.70;77.10;;;;;;5026156;28;20469;-84
2021/03/03 00:16:26;;;;;;;20.88;13.68;;;9.60;77.20;;;;;;5016316;28;20033;-84
2021/03/03 00:18:52;;;;;;;21.80;12.57;;;9.60;77.70;;;;;;5022516;28;20041;-85
2021/03/03 00:21:17;;;;;;;24.08;13.68;;;9.60;77.90;;;;;;5049379;28;20480;-86
2021/03/03 00:23:43;;;;;;;21.15;12.77;;;9.50;77.70;;;;;;5020271;28;20361;-85
2021/03/03 00:26:09;;;;;;;21.45;12.27;;;9.50;77.90;;;;;;5047718;28;20041;-86
2021/03/03 00:28:34;;;;;;;22.02;12.90;;;9.50;78.00;;;;;;5038220;28;20032;-85
2021/03/03 00:31:00;;;;;;;23.88;12.80;;;9.40;77.90;;;;;;5038433;28;20024;-85
2021/03/03 00:33:25;;;;;;;21.67;12.48;;;9.40;78.20;;;;;;5021287;28;20123;-85
2021/03/03 00:35:51;;;;;;;21.00;12.02;;;9.40;78.20;;;;;;5013415;28;20120;-85
2021/03/03 00:38:17;;;;;;;21.40;12.75;;;9.40;78.20;;;;;;5002166;28;20389;-85
2021/03/03 00:40:42;;;;;;;20.25;11.93;;;9.30;78.40;;;;;;5020105;28;20032;-85
2021/03/03 00:43:08;;;;;;;23.00;13.15;;;9.30;78.40;;;;;;5037092;28;20029;-85
2021/03/03 00:45:34;;;;;;;20.45;12.32;;;9.30;78.50;;;;;;5038463;28;20037;-85
2021/03/03 00:47:59;;;;;;;22.65;12.98;;;9.20;78.40;;;;;;5036574;28;20025;-85
2021/03/03 00:50:25;;;;;;;20.40;12.10;;;9.20;78.40;;;;;;5038150;28;20040;-85
2021/03/03 00:52:51;;;;;;;24.92;13.55;;;9.20;78.50;;;;;;5037769;28;20070;-85
2021/03/03 00:55:16;;;;;;;21.92;13.10;;;9.20;78.50;;;;;;5037386;28;20048;-86
2021/03/03 00:57:42;;;;;;;19.45;12.48;;;9.10;78.40;;;;;;5037768;28;20053;-86
2021/03/03 01:00:08;;;;;;;23.92;12.43;;;9.10;78.60;;;;;;5037857;28;20032;-85
2021/03/03 01:02:34;;;;;;;23.85;13.85;;;9.10;78.60;;;;;;5021663;28;20025;-85
2021/03/03 01:05:00;;;;;;;21.60;13.35;;;9.10;78.50;;;;;;5031116;28;20079;-85
2021/03/03 01:07:26;;;;;;;22.27;12.38;;;9.00;78.40;;;;;;5016783;28;20026;-86
2021/03/03 01:09:52;;;;;;;21.25;13.35;;;9.00;78.50;;;;;;5000406;28;20053;-86
2021/03/03 01:12:17;;;;;;;22.00;12.60;;;9.00;78.50;;;;;;4983986;28;20028;-86
2021/03/03 01:14:43;;;;;;;21.33;12.27;;;9.00;78.60;;;;;;5016438;28;20028;-85
2021/03/03 01:17:08;;;;;;;22.73;12.70;;;8.90;78.70;;;;;;5016613;28;20097;-86
2021/03/03 01:19:34;;;;;;;23.65;12.65;;;8.90;78.80;;;;;;5035304;28;20083;-86
2021/03/03 01:22:00;;;;;;;20.80;12.40;;;8.90;78.80;;;;;;5040072;28;20025;-86
2021/03/03 01:24:26;;;;;;;20.88;12.55;;;8.80;78.80;;;;;;5042521;28;20053;-86
2021/03/03 01:26:51;;;;;;;21.83;12.02;;;8.80;78.80;;;;;;4983637;28;20440;-85
2021/03/03 01:29:17;;;;;;;23.52;12.00;;;8.80;78.90;;;;;;5032341;28;20029;-85
2021/03/03 01:31:43;;;;;;;20.92;11.77;;;8.80;78.90;;;;;;4997798;28;20030;-86
2021/03/03 01:34:08;;;;;;;23.05;12.48;;;8.70;78.90;;;;;;4980766;28;20056;-85
2021/03/03 01:36:34;;;;;;;21.48;12.88;;;8.70;79.00;;;;;;5015361;28;20049;-86
2021/03/03 01:38:59;;;;;;;20.35;12.32;;;8.70;79.00;;;;;;5028596;28;20394;-85
2021/03/03 01:41:25;;;;;;;20.27;12.15;;;8.70;79.20;;;;;;5032367;28;20068;-85
2021/03/03 01:43:51;;;;;;;20.40;12.02;;;8.60;79.20;;;;;;5016138;28;20038;-85
2021/03/03 01:46:17;;;;;;;25.52;13.10;;;8.60;79.30;;;;;;5033225;28;20036;-85
2021/03/03 01:48:42;;;;;;;20.27;11.65;;;8.50;79.30;;;;;;5015719;28;20038;-85
2021/03/03 01:51:09;;;;;;;24.05;12.57;;;8.50;79.40;;;;;;5015156;28;20040;-85
2021/03/03 01:53:34;;;;;;;18.98;11.98;;;8.50;79.50;;;;;;4999264;28;20037;-85
2021/03/03 01:56:00;;;;;;;21.70;11.63;;;8.50;79.60;;;;;;5033518;28;20052;-85
2021/03/03 01:58:26;;;;;;;21.50;11.85;;;8.40;79.70;;;;;;5011808;28;20073;-85
2021/03/03 02:00:51;;;;;;;23.40;11.45;;;8.40;79.80;;;;;;5012291;28;20065;-85
2021/03/03 02:03:17;;;;;;;20.67;11.75;;;8.40;79.90;;;;;;5014012;28;20030;-85
2021/03/03 02:05:43;;;;;;;20.58;10.57;;;8.40;79.90;;;;;;4997165;28;20037;-86
2021/03/03 02:08:20;;;;;;;23.30;12.55;;;8.40;80.00;;;;;;5012664;28;20545;-85
2021/03/03 02:11:09;;;;;;;20.48;11.45;;;8.30;80.10;;;;;;5014700;28;20069;-84
2021/03/03 02:14:05;;;;;;;20.52;11.15;;;8.30;80.10;;;;;;5014746;28;20034;-85
2021/03/03 02:16:31;;;;;;;22.33;11.60;;;8.30;80.20;;;;;;5011099;28;20033;-85
2021/03/03 02:18:59;;;;;;;21.15;12.10;;;8.30;80.30;;;;;;5011577;28;20026;-86
2021/03/03 02:21:36;;;;;;;22.98;12.15;;;8.20;80.50;;;;;;5012011;28;20026;-85
2021/03/03 02:24:13;;;;;;;22.17;12.57;;;8.20;80.50;;;;;;5011887;28;20030;-85
2021/03/03 02:26:40;;;;;;;18.27;11.35;;;8.10;80.50;;;;;;5012134;28;20014;-85
2021/03/03 02:29:11;;;;;;;18.38;11.55;;;8.10;80.50;;;;;;5011860;28;20030;-85
2021/03/03 02:31:39;;;;;;;19.27;11.73;;;8.10;80.60;;;;;;5014323;28;20028;-85
2021/03/03 02:34:06;;;;;;;21.30;12.48;;;8.00;80.60;;;;;;5012779;28;20030;-85
2021/03/03 02:36:33;;;;;;;19.90;11.48;;;8.00;80.70;;;;;;5009240;28;20391;-85
2021/03/03 02:39:00;;;;;;;23.13;13.77;;;8.00;80.80;;;;;;5006984;28;20034;-86
2021/03/03 02:41:27;;;;;;;19.83;12.23;;;8.00;80.80;;;;;;5012104;28;20029;-85
2021/03/03 02:43:55;;;;;;;20.30;12.48;;;7.90;80.80;;;;;;5013794;28;20030;-85
2021/03/03 02:46:21;;;;;;;21.75;12.40;;;7.90;80.90;;;;;;5013070;28;20076;-85
2021/03/03 02:48:47;;;;;;;19.92;12.65;;;7.90;81.00;;;;;;5012829;28;20038;-85
2021/03/03 02:51:13;;;;;;;21.20;11.93;;;7.90;81.10;;;;;;5011140;28;20025;-85
2021/03/03 02:53:42;;;;;;;23.98;12.57;;;7.90;81.10;;;;;;5012637;28;20579;-84
2021/03/03 02:56:09;;;;;;;19.38;11.52;;;7.80;81.20;;;;;;5010487;28;20046;-85
2021/03/03 02:58:34;;;;;;;20.25;11.60;;;7.80;81.20;;;;;;5011299;28;20058;-85
2021/03/03 03:01:02;;;;;;;21.15;10.50;;;7.80;81.20;;;;;;5011164;28;20045;-85
2021/03/03 03:03:41;;;;;;;18.85;11.15;;;7.80;81.40;;;;;;5011324;28;20378;-85
2021/03/03 03:06:24;;;;;;;18.35;10.68;;;7.70;81.40;;;;;;4995426;28;20029;-85
2021/03/03 03:08:52;;;;;;;19.20;10.93;;;7.70;81.60;;;;;;5012651;28;20026;-85
2021/03/03 03:11:25;;;;;;;20.83;11.80;;;7.70;81.60;;;;;;5010198;28;20522;-85
2021/03/03 03:13:54;;;;;;;21.80;11.73;;;7.60;82.20;;;;;;5012442;28;20034;-85
2021/03/03 03:16:21;;;;;;;20.08;11.45;;;7.60;81.70;;;;;;5012246;28;20030;-85
2021/03/03 03:18:51;;;;;;;20.13;11.52;;;7.60;81.80;;;;;;5012576;28;20034;-85
2021/03/03 03:21:18;;;;;;;20.63;12.02;;;7.60;81.80;;;;;;5012211;28;20037;-85
2021/03/03 03:23:45;;;;;;;20.13;11.50;;;7.60;81.90;;;;;;5011589;28;20108;-85
2021/03/03 03:26:11;;;;;;;20.67;11.75;;;7.50;82.00;;;;;;4996051;28;20561;-85
2021/03/03 03:28:38;;;;;;;21.65;11.55;;;7.50;81.90;;;;;;4995227;28;20037;-85
2021/03/03 03:31:05;;;;;;;18.75;11.02;;;7.50;82.60;;;;;;5010821;28;20482;-85
2021/03/03 03:33:30;;;;;;;19.48;11.45;;;7.50;82.00;;;;;;4994487;28;20030;-85
2021/03/03 03:35:57;;;;;;;20.33;11.43;;;7.50;82.10;;;;;;5012107;28;20036;-85
2021/03/03 03:38:25;;;;;;;23.67;12.38;;;7.40;82.10;;;;;;4995463;28;20034;-85
2021/03/03 03:40:51;;;;;;;22.92;12.23;;;7.40;82.20;;;;;;5013129;28;20084;-85
2021/03/03 03:43:18;;;;;;;21.13;12.18;;;7.40;82.20;;;;;;5010525;28;20125;-85
2021/03/03 03:45:44;;;;;;;20.77;11.77;;;7.40;82.40;;;;;;5010522;28;20108;-85
2021/03/03 03:48:10;;;;;;;20.83;10.82;;;7.40;82.40;;;;;;5010666;28;20060;-85
2021/03/03 03:50:36;;;;;;;21.08;11.60;;;7.30;82.50;;;;;;4978865;28;20501;-84
2021/03/03 03:53:02;;;;;;;19.17;11.10;;;7.30;82.50;;;;;;5011511;28;20022;-85
2021/03/03 03:55:36;;;;;;;22.25;11.95;;;7.30;82.60;;;;;;5011051;28;20383;-85
2021/03/03 03:58:03;;;;;;;20.92;11.07;;;7.30;82.70;;;;;;5005750;28;20132;-85
2021/03/03 04:00:29;;;;;;;24.15;12.38;;;7.30;82.60;;;;;;5032720;28;20164;-85
2021/03/03 04:02:55;;;;;;;20.52;11.93;;;7.20;82.70;;;;;;4999086;28;20482;-85
2021/03/03 04:05:21;;;;;;;19.00;11.05;;;7.20;82.70;;;;;;5032187;28;20033;-84
2021/03/03 04:07:47;;;;;;;17.98;10.38;;;7.20;82.80;;;;;;4998492;28;20036;-85
2021/03/03 04:10:18;;;;;;;19.77;11.63;;;7.20;82.80;;;;;;5014723;28;20497;-85
2021/03/03 04:12:44;;;;;;;18.65;11.57;;;7.20;82.90;;;;;;5031782;28;20029;-85
2021/03/03 04:15:11;;;;;;;24.05;12.50;;;7.20;82.90;;;;;;4998443;28;20026;-85
2021/03/03 04:17:37;;;;;;;19.50;12.15;;;7.10;82.90;;;;;;5032335;28;20026;-85
2021/03/03 04:20:05;;;;;;;17.45;11.30;;;7.10;83.10;;;;;;5014906;28;20460;-85
2021/03/03 04:22:31;;;;;;;20.23;10.70;;;7.10;83.20;;;;;;5033376;28;20044;-85
2021/03/03 04:24:57;;;;;;;20.40;11.30;;;7.10;83.20;;;;;;5035900;28;20025;-85
2021/03/03 04:27:23;;;;;;;19.80;10.52;;;7.00;83.20;;;;;;5034048;28;20528;-85
2021/03/03 04:29:48;;;;;;;20.60;11.25;;;7.00;83.30;;;;;;5035837;28;20030;-85
2021/03/03 04:32:14;;;;;;;16.35;10.20;;;7.00;83.30;;;;;;5016577;28;20076;-85
2021/03/03 04:34:39;;;;;;;21.55;11.23;;;7.00;83.50;;;;;;5017063;28;20089;-85
2021/03/03 04:37:05;;;;;;;20.48;11.38;;;7.00;83.50;;;;;;5033535;28;20096;-85
2021/03/03 04:39:31;;;;;;;20.05;10.63;;;7.00;83.60;;;;;;5016760;28;20041;-85
2021/03/03 04:41:56;;;;;;;17.55;10.30;;;7.00;83.60;;;;;;5017271;28;20056;-84
2021/03/03 04:44:22;;;;;;;19.55;11.48;;;6.90;83.60;;;;;;5034265;28;20029;-85
2021/03/03 04:46:48;;;;;;;17.98;10.40;;;6.90;83.70;;;;;;5000664;28;20103;-85
2021/03/03 04:49:13;;;;;;;16.90;10.63;;;6.90;83.80;;;;;;5000090;28;20084;-85
2021/03/03 04:51:39;;;;;;;21.38;11.15;;;6.90;83.90;;;;;;5017200;28;20033;-85
2021/03/03 04:54:05;;;;;;;19.65;10.82;;;6.90;84.00;;;;;;4983948;28;20477;-85
2021/03/03 04:56:31;;;;;;;19.15;11.70;;;6.80;84.00;;;;;;5017072;28;20041;-85
2021/03/03 04:58:56;;;;;;;21.15;11.43;;;6.80;84.10;;;;;;5034391;28;20061;-85
2021/03/03 05:01:22;;;;;;;20.25;11.02;;;6.80;84.30;;;;;;5033788;28;20025;-85
2021/03/03 05:03:47;;;;;;;19.75;11.05;;;6.80;84.30;;;;;;5035184;28;20356;-85
2021/03/03 05:06:13;;;;;;;19.02;10.60;;;6.80;84.40;;;;;;5033382;28;20037;-86
2021/03/03 05:08:39;;;;;;;19.05;11.20;;;6.80;84.50;;;;;;5001030;28;20037;-85
2021/03/03 05:11:04;;;;;;;21.45;11.25;;;6.80;84.50;;;;;;5017391;28;20036;-85
2021/03/03 05:13:31;;;;;;;19.30;11.45;;;6.80;84.60;;;;;;5033725;28;20479;-85
2021/03/03 05:15:58;;;;;;;22.52;10.95;;;6.80;84.60;;;;;;5034229;28;20059;-85
2021/03/03 05:18:23;;;;;;;21.52;11.68;;;6.80;84.80;;;;;;5016666;28;20083;-85
2021/03/03 05:20:50;;;;;;;19.95;12.35;;;6.80;84.90;;;;;;5033460;28;20490;-85
2021/03/03 05:23:28;;;;;;;20.30;10.88;;;6.70;84.90;;;;;;5033556;28;20061;-85
2021/03/03 05:25:54;;;;;;;17.73;10.75;;;6.70;84.90;;;;;;5016400;28;20017;-85
2021/03/03 05:28:20;;;;;;;18.85;10.80;;;6.70;85.00;;;;;;5033786;28;20034;-85
2021/03/03 05:30:46;;;;;;;22.52;11.65;;;6.70;85.10;;;;;;5000017;28;20755;-84
2021/03/03 05:33:11;;;;;;;20.05;11.15;;;6.70;85.10;;;;;;5033381;28;20034;-85
2021/03/03 05:35:37;;;;;;;19.23;11.00;;;6.70;85.20;;;;;;4999776;28;20064;-85
2021/03/03 05:38:03;;;;;;;20.83;11.65;;;6.60;85.20;;;;;;5015761;28;20030;-85
2021/03/03 05:40:28;;;;;;;17.73;10.55;;;6.60;85.20;;;;;;4983539;28;20116;-85
2021/03/03 05:42:54;;;;;;;24.95;11.77;;;6.70;85.40;;;;;;5016823;28;20093;-84
2021/03/03 05:45:20;;;;;;;22.30;11.02;;;6.60;85.40;;;;;;5000850;28;20025;-86
2021/03/03 05:47:48;;;;;;;18.92;11.13;;;6.60;85.50;;;;;;5019223;28;20029;-86
2021/03/03 05:50:19;;;;;;;19.08;10.85;;;6.60;85.60;;;;;;5049269;28;20481;-87
2021/03/03 05:52:44;;;;;;;19.08;10.73;;;6.60;85.70;;;;;;5030734;28;20091;-86
2021/03/03 05:55:11;;;;;;;18.88;11.35;;;6.60;85.80;;;;;;4999473;28;20166;-86
2021/03/03 05:57:36;;;;;;;18.20;10.63;;;6.60;85.90;;;;;;5000686;28;20025;-86
2021/03/03 06:00:05;;;;;;;21.33;11.82;;;6.50;85.80;;;;;;5034525;28;20025;-86
2021/03/03 06:02:32;;;;;;;19.60;11.45;;;6.50;85.80;;;;;;5036714;28;20040;-86
2021/03/03 06:04:59;;;;;;;20.77;11.38;;;6.60;86.10;;;;;;5010150;28;20032;-86
2021/03/03 06:07:26;;;;;;;22.15;10.77;;;6.50;86.10;;;;;;5040124;28;20107;-87
2021/03/03 06:09:51;;;;;;;16.65;10.38;;;6.50;86.10;;;;;;5032914;28;20024;-87
2021/03/03 06:12:17;;;;;;;21.63;11.55;;;6.50;86.10;;;;;;5018090;28;20021;-87
2021/03/03 06:14:43;;;;;;;20.13;10.73;;;6.50;86.10;;;;;;5052550;28;20471;-85
2021/03/03 06:17:08;;;;;;;24.17;11.35;;;6.50;86.20;;;;;;5029387;28;20037;-87
2021/03/03 06:19:34;;;;;;;23.42;12.55;;;6.50;86.20;;;;;;5027981;28;20033;-86
2021/03/03 06:22:26;;;;;;;19.52;11.07;;;6.50;86.20;;;;;;5032033;28;20032;-88
2021/03/03 06:24:56;;;;;;;20.08;11.93;;;6.50;86.30;;;;;;5015800;28;20025;-88
2021/03/03 06:27:36;;;;;;;18.93;12.00;;;6.40;86.30;;;;;;5020578;28;20029;-87
2021/03/03 06:30:06;;;;;;;19.77;11.75;;;6.40;86.40;;;;;;5047070;28;20033;-87
2021/03/03 06:32:55;;;;;;;20.98;11.25;;;6.40;86.40;;;;;;5034037;28;20027;-87
2021/03/03 06:35:31;;;;;;;21.85;11.23;;;6.40;86.60;;;;;;5051142;28;20087;-88
2021/03/03 06:37:57;;;;;;;19.52;11.95;;;6.40;86.60;;;;;;5052817;28;20029;-88
2021/03/03 06:40:23;;;;;;;19.98;12.10;;;6.30;86.50;;;;;;5052957;28;20055;-88
2021/03/03 06:42:49;;;;;;;18.45;10.32;;;6.40;86.70;;;;;;5035304;28;20039;-88
2021/03/03 06:45:29;;;;;;;20.83;11.45;;;6.40;86.70;;;;;;5034462;28;20089;-88
2021/03/03 06:47:55;;;;;;;22.67;10.45;;;6.30;86.80;;;;;;5027143;28;20048;-88
2021/03/03 06:50:30;;;;;;;19.88;10.55;;;6.30;86.80;;;;;;5040325;28;20060;-88
2021/03/03 06:52:56;;;;;;;16.88;10.02;;;6.30;86.80;;;;;;5018135;28;20031;-88
2021/03/03 06:55:21;;;;;;;19.33;10.88;;;6.30;86.90;;;;;;5031947;28;20381;-88
2021/03/03 06:57:47;;;;;;;18.25;9.93;;;6.30;87.10;;;;;;5031821;28;20099;-88
2021/03/03 07:00:14;;;;;;;22.40;10.60;;;6.30;87.10;;;;;;4998963;28;20045;-88
2021/03/03 07:02:43;;;;;;;20.05;10.68;;;6.30;87.20;;;;;;5045999;28;20048;-88
2021/03/03 07:05:10;;;;;;;19.00;11.75;;;6.30;87.30;;;;;;5031922;28;20470;-88
2021/03/03 07:07:36;;;;;;;19.40;10.55;;;6.30;87.30;;;;;;5031324;28;20163;-87
2021/03/03 07:10:04;;;;;;;19.38;10.98;;;6.30;87.30;;;;;;5031715;28;20452;-87
2021/03/03 07:12:32;;;;;;;19.17;10.90;;;6.30;87.60;;;;;;5031305;28;20025;-88
2021/03/03 07:15:08;;;;;;;18.20;10.63;;;6.30;87.70;;;;;;5050613;28;20025;-87
2021/03/03 07:17:46;;;;;;;21.42;11.48;;;6.30;87.90;;;;;;5022798;28;20037;-88
2021/03/03 07:20:17;;;;;;;20.05;11.27;;;6.30;87.90;;;;;;5031653;28;20029;-88
2021/03/03 07:22:49;;;;;;;;;;;6.30;87.90;;;;;;5031815;28;20136;-87
2021/03/03 07:25:17;;;;;;;17.52;10.02;;;6.40;88.10;;;;;;5015710;28;19912;-88
2021/03/03 07:27:44;;;;;;;20.15;11.23;;;6.40;88.40;;;;;;5031894;28;20049;-88
2021/03/03 07:30:21;;;;;;;21.70;12.20;;;6.40;88.40;;;;;;5049562;28;20100;-88
2021/03/03 07:32:48;;;;;;;23.27;10.65;;;6.40;88.50;;;;;;5035006;28;20048;-87
2021/03/03 07:35:14;;;;;;;20.30;10.70;;;6.40;88.60;;;;;;5034562;28;20032;-87
2021/03/03 07:37:51;;;;;;;18.25;10.60;;;6.40;88.70;;;;;;5052874;28;20041;-88
2021/03/03 07:40:17;;;;;;;21.02;10.70;;;6.50;88.90;;;;;;5053053;28;20461;-87
2021/03/03 07:42:51;;;;;;;21.08;12.35;;;6.50;89.00;;;;;;5048410;28;20029;-87
2021/03/03 07:45:18;;;;;;;19.60;11.40;;;6.50;89.10;;;;;;5018481;28;20021;-87
2021/03/03 07:47:44;;;;;;;19.20;11.80;;;6.60;89.30;;;;;;4982103;28;20377;-87
2021/03/03 07:50:16;;;;;;;17.90;10.63;;;6.60;89.40;;;;;;4982160;28;20113;-87
2021/03/03 07:52:47;;;;;;;18.58;11.32;;;6.60;89.50;;;;;;5015088;28;20029;-87
2021/03/03 07:55:13;;;;;;;22.50;12.13;;;6.70;89.60;;;;;;5014438;28;20032;-88
2021/03/03 07:57:48;;;;;;;23.40;13.02;;;6.70;89.70;;;;;;5006083;28;20034;-87
2021/03/03 08:00:19;;;;;;;21.42;12.23;;;6.70;89.80;;;;;;5003090;28;20061;-87
2021/03/03 08:02:46;;;;;;;26.88;14.57;;;6.80;90.00;;;;;;5033885;28;20067;-87
2021/03/03 08:05:25;;;;;;;33.75;16.80;;;6.80;90.00;;;;;;5018164;28;20518;-87
2021/03/03 08:08:09;;;;;;;30.83;17.20;;;6.90;90.20;;;;;;5021616;28;20033;-86
2021/03/03 08:10:40;;;;;;;31.85;17.73;;;6.90;90.40;;;;;;5054526;28;20025;-87
2021/03/03 08:13:12;;;;;;;35.05;17.88;;;7.00;90.50;;;;;;5027808;28;20469;-88
2021/03/03 08:15:42;;;;;;;30.63;18.88;;;7.00;90.50;;;;;;5044492;28;20068;-86
2021/03/03 08:18:13;;;;;;;29.92;18.55;;;7.00;90.70;;;;;;5027262;28;20033;-87
2021/03/03 08:20:40;;;;;;;39.60;20.77;;;7.10;90.80;;;;;;5033808;28;20602;-86
2021/03/03 08:23:07;;;;;;;33.33;18.90;;;7.10;91.30;;;;;;5016169;28;20068;-87
2021/03/03 08:25:49;;;;;;;37.90;21.25;;;7.20;90.90;;;;;;5036796;28;20029;-86
2021/03/03 08:28:39;;;;;;;36.92;20.27;;;7.20;91.10;;;;;;5020903;28;20051;-86
2021/03/03 08:31:13;;;;;;;37.28;19.75;;;7.30;91.20;;;;;;5008767;28;20072;-87
2021/03/03 08:33:43;;;;;;;36.33;22.15;;;7.30;91.00;;;;;;5034669;28;20030;-86
2021/03/03 08:36:20;;;;;;;35.15;18.23;;;7.40;91.20;;;;;;5026260;28;20029;-86
2021/03/03 08:38:47;;;;;;;37.35;17.95;;;7.40;91.00;;;;;;5035359;28;20039;-86
2021/03/03 08:41:15;;;;;;;26.70;17.45;;;7.50;91.00;;;;;;5001851;28;20105;-86
2021/03/03 08:43:46;;;;;;;32.33;18.85;;;7.60;91.10;;;;;;5017107;28;20014;-85
2021/03/03 08:46:41;;;;;;;26.15;17.23;;;7.60;91.10;;;;;;5036052;28;20104;-85
2021/03/03 08:49:07;;;;;;;36.33;20.55;;;7.70;91.00;;;;;;5010469;28;20082;-86
2021/03/03 08:51:43;;;;;;;40.25;23.88;;;7.70;91.00;;;;;;5014073;28;20052;-86
2021/03/03 08:54:17;;;;;;;33.42;21.05;;;7.70;91.20;;;;;;5017376;28;20367;-86
2021/03/03 08:56:45;;;;;;;40.85;23.63;;;7.80;91.10;;;;;;5017409;28;20474;-86
2021/03/03 08:59:33;;;;;;;34.00;20.23;;;7.80;91.20;;;;;;5001091;28;20096;-86
2021/03/03 09:02:08;;;;;;;38.13;23.83;;;7.80;91.10;;;;;;5024033;28;20414;-86
2021/03/03 09:04:56;;;;;;;32.83;20.20;;;7.90;91.10;;;;;;5041691;28;20104;-86
2021/03/03 09:07:22;;;;;;;35.92;21.85;;;7.90;91.10;;;;;;5013703;28;20033;-87
2021/03/03 09:09:51;;;;;;;37.35;21.73;;;8.00;91.10;;;;;;4995629;28;20056;-86
2021/03/03 09:12:19;;;;;;;38.38;23.20;;;8.00;91.10;;;;;;5024296;28;20021;-86
2021/03/03 09:14:48;;;;;;;36.30;21.35;;;8.10;91.20;;;;;;5044487;28;20108;-86
2021/03/03 09:17:16;;;;;;;33.03;20.95;;;8.20;91.20;;;;;;5010911;28;20034;-86
2021/03/03 09:19:43;;;;;;;38.78;22.38;;;8.20;91.20;;;;;;5033084;28;20025;-85
2021/03/03 09:22:27;;;;;;;31.92;21.38;;;8.30;91.20;;;;;;5016084;28;20045;-86
2021/03/03 09:24:55;;;;;;;39.70;23.92;;;8.30;91.20;;;;;;4997378;28;20033;-85
2021/03/03 09:27:22;;;;;;;32.10;21.30;;;8.40;91.30;;;;;;5016585;28;20149;-87
2021/03/03 09:29:49;;;;;;;33.45;21.45;;;8.50;91.20;;;;;;5029220;28;20029;-89
2021/03/03 09:32:21;;;;;;;35.65;22.83;;;8.60;91.30;;;;;;5024226;28;20520;-90
2021/03/03 09:34:56;;;;;;;29.55;19.42;;;8.60;91.20;;;;;;5010732;28;20033;-89
2021/03/03 09:37:23;;;;;;;33.00;20.23;;;8.70;91.20;;;;;;5013196;28;20030;-89
2021/03/03 09:39:52;;;;;;;35.50;22.30;;;8.70;91.20;;;;;;5016388;28;20052;-88
2021/03/03 09:42:18;;;;;;;38.00;22.20;;;8.80;91.30;;;;;;5034759;28;20021;-88
2021/03/03 09:44:48;;;;;;;37.22;22.90;;;8.90;91.60;;;;;;5016252;28;20036;-89
2021/03/03 09:47:31;;;;;;;35.30;22.88;;;8.90;91.20;;;;;;5016386;28;20092;-89
2021/03/03 09:49:57;;;;;;;39.15;23.20;;;9.00;91.20;;;;;;5016834;28;20013;-87
2021/03/03 09:52:31;;;;;;;45.45;27.00;;;9.00;91.20;;;;;;5000755;28;20080;-89
2021/03/03 09:54:56;;;;;;;43.75;27.15;;;9.10;91.50;;;;;;5017457;28;20541;-88
2021/03/03 09:57:23;;;;;;;41.63;26.42;;;9.10;91.50;;;;;;5000524;28;20124;-88
2021/03/03 09:59:53;;;;;;;39.67;26.13;;;9.20;91.50;;;;;;5013027;28;20085;-89
2021/03/03 10:02:24;;;;;;;41.85;25.45;;;9.20;91.50;;;;;;5012711;28;20022;-87
2021/03/03 10:04:50;;;;;;;45.88;29.10;;;9.30;91.50;;;;;;4996722;28;20026;-89
2021/03/03 10:07:22;;;;;;;41.97;27.27;;;9.30;91.60;;;;;;5006041;28;20060;-85
2021/03/03 10:09:51;;;;;;;41.42;26.58;;;9.40;91.60;;;;;;5011673;28;20076;-85
2021/03/03 10:12:19;;;;;;;42.72;26.83;;;9.40;91.60;;;;;;5013810;28;20025;-85
2021/03/03 10:15:02;;;;;;;43.75;26.50;;;9.40;91.50;;;;;;5019844;28;20065;-85
2021/03/03 10:17:41;;;;;;;36.92;24.60;;;9.40;91.50;;;;;;5020606;28;20482;-85
2021/03/03 10:20:27;;;;;;;40.10;27.17;;;9.50;91.50;;;;;;5020795;28;20084;-86
2021/03/03 10:22:58;;;;;;;36.13;24.02;;;9.60;91.50;;;;;;5012635;28;20068;-85
2021/03/03 10:25:33;;;;;;;41.53;26.70;;;9.60;91.50;;;;;;5011376;28;20040;-85
2021/03/03 10:28:14;;;;;;;37.58;25.45;;;9.60;91.50;;;;;;5011423;28;20049;-85
2021/03/03 10:30:42;;;;;;;37.65;25.40;;;9.70;91.50;;;;;;5002889;28;20046;-85
2021/03/03 10:33:09;;;;;;;37.25;24.92;;;9.80;91.50;;;;;;5008689;28;20080;-85
2021/03/03 10:35:47;;;;;;;39.30;26.20;;;9.90;91.50;;;;;;5011242;28;20371;-86
2021/03/03 10:38:15;;;;;;;36.97;24.45;;;9.90;91.50;;;;;;5012096;28;20458;-85
2021/03/03 10:40:42;;;;;;;32.72;23.38;;;10.00;91.50;;;;;;5011378;28;20037;-85
2021/03/03 10:43:10;;;;;;;36.70;24.33;;;10.10;91.50;;;;;;5011058;28;20054;-85
2021/03/03 10:45:36;;;;;;;41.75;27.88;;;10.20;91.50;;;;;;5009086;28;20528;-86
2021/03/03 10:48:01;;;;;;;44.80;29.85;;;10.20;91.50;;;;;;4994416;28;20034;-85
2021/03/03 10:50:28;;;;;;;49.95;33.20;;;10.30;91.60;;;;;;5011163;28;20769;-86
2021/03/03 10:52:59;;;;;;;49.00;29.38;;;10.40;91.40;;;;;;5027239;28;20018;-85
2021/03/03 10:55:32;;;;;;;44.80;29.35;;;10.40;91.40;;;;;;5012342;28;20074;-85
2021/03/03 10:58:05;;;;;;;39.97;26.95;;;10.50;91.40;;;;;;5013245;28;20109;-85
2021/03/03 11:00:32;;;;;;;42.20;29.98;;;10.60;91.40;;;;;;5032408;28;20043;-85
2021/03/03 11:03:05;;;;;;;44.13;30.58;;;10.70;91.40;;;;;;5014094;28;20033;-85
2021/03/03 11:05:31;;;;;;;45.47;31.25;;;10.80;91.40;;;;;;5032749;28;20025;-91
2021/03/03 11:07:58;;;;;;;52.83;35.13;;;10.90;91.40;;;;;;5018973;28;20026;-88
2021/03/03 11:10:35;;;;;;;49.17;32.90;;;10.90;91.10;;;;;;5055513;28;20028;-91
2021/03/03 11:13:00;;;;;;;50.83;34.10;;;11.00;91.00;;;;;;5022580;28;20040;-86
2021/03/03 11:15:26;;;;;;;54.97;35.40;;;11.10;91.00;;;;;;5036214;28;20029;-90
2021/03/03 11:17:52;;;;;;;51.10;34.63;;;11.20;90.80;;;;;;5035358;28;20013;-85
2021/03/03 11:20:18;;;;;;;63.30;39.15;;;11.30;90.60;;;;;;5017864;28;20098;-84
2021/03/03 11:22:44;;;;;;;59.60;37.50;;;11.40;90.60;;;;;;5050829;28;20033;-84
2021/03/03 11:25:10;;;;;;;48.78;32.53;;;11.40;90.00;;;;;;4997402;28;20027;-85
2021/03/03 11:27:35;;;;;;;55.22;36.17;;;11.50;90.10;;;;;;5012548;28;20045;-85
2021/03/03 11:30:02;;;;;;;52.35;35.55;;;11.60;90.10;;;;;;5030341;28;20034;-85
2021/03/03 11:32:27;;;;;;;47.83;33.97;;;11.70;90.00;;;;;;5013237;28;20482;-85
2021/03/03 11:34:53;;;;;;;59.33;37.15;;;11.80;90.00;;;;;;5013322;28;20029;-85
2021/03/03 11:37:19;;;;;;;53.10;36.88;;;11.90;89.80;;;;;;5031137;28;20033;-85
2021/03/03 11:39:44;;;;;;;53.38;36.80;;;12.00;89.70;;;;;;5012825;28;20486;-85
2021/03/03 11:42:10;;;;;;;59.67;39.53;;;12.10;89.00;;;;;;4995781;28;20419;-84
2021/03/03 11:44:36;;;;;;;51.15;34.97;;;12.20;88.60;;;;;;4996171;28;20072;-85
2021/03/03 11:47:02;;;;;;;45.15;32.17;;;12.30;88.60;;;;;;5030780;28;20041;-83
2021/03/03 11:49:27;;;;;;;65.45;41.33;;;12.40;88.80;;;;;;5014012;28;20393;-83
2021/03/03 11:51:53;;;;;;;58.65;38.30;;;12.50;86.50;;;;;;5043409;28;20103;-83
2021/03/03 11:54:19;;;;;;;53.15;36.58;;;12.60;86.70;;;;;;5031674;28;20409;-83
2021/03/03 11:56:46;;;;;;;60.00;39.80;;;12.60;86.00;;;;;;5013593;28;20046;-84
2021/03/03 11:59:12;;;;;;;60.50;40.40;;;12.70;85.20;;;;;;5026237;28;20099;-83
2021/03/03 12:01:37;;;;;;;57.00;37.40;;;12.80;84.40;;;;;;5004865;28;20450;-86
2021/03/03 12:04:03;;;;;;;60.85;41.40;;;12.90;85.20;;;;;;5007803;28;20520;-89
2021/03/03 12:06:29;;;;;;;64.72;43.90;;;12.90;83.10;;;;;;4984351;28;20033;-89
2021/03/03 12:08:54;;;;;;;57.55;40.42;;;12.90;83.90;;;;;;5023199;28;20033;-88
2021/03/03 12:11:20;;;;;;;58.35;39.78;;;13.00;83.40;;;;;;4983820;28;20079;-89
2021/03/03 12:13:46;;;;;;;60.88;40.70;;;13.10;83.80;;;;;;5041258;28;20773;-88
2021/03/03 12:16:11;;;;;;;59.17;38.92;;;13.20;83.30;;;;;;5009600;28;20432;-88
2021/03/03 12:18:37;;;;;;;57.05;37.70;;;13.30;83.30;;;;;;4999633;28;20111;-88
2021/03/03 12:21:03;;;;;;;56.95;38.72;;;13.30;83.50;;;;;;5011165;28;20362;-87
2021/03/03 12:23:28;;;;;;;55.63;37.25;;;13.40;83.10;;;;;;5016804;28;20025;-89
2021/03/03 12:25:54;;;;;;;59.05;39.10;;;13.40;83.20;;;;;;4999966;28;20541;-88
2021/03/03 12:28:22;;;;;;;52.33;37.90;;;13.50;82.10;;;;;;5018417;28;20549;-88
2021/03/03 12:30:47;;;;;;;56.17;38.75;;;13.60;83.20;;;;;;5018180;28;20022;-89
2021/03/03 12:33:13;;;;;;;62.67;40.95;;;13.70;82.20;;;;;;5000464;28;20480;-89
2021/03/03 12:35:39;;;;;;;60.70;40.92;;;13.80;81.90;;;;;;5009343;28;20033;-91
2021/03/03 12:38:04;;;;;;;57.17;40.13;;;13.80;81.00;;;;;;5027503;28;20061;-89
2021/03/03 12:40:30;;;;;;;57.75;39.67;;;13.90;81.50;;;;;;5016748;28;20034;-89
2021/03/03 12:42:56;;;;;;;56.63;40.25;;;14.00;81.70;;;;;;4999538;28;20030;-90